createdAt,value
2023-04-02T00:00:36.351Z,89.28
2023-04-02T00:01:39.225Z,88.54
2023-04-02T00:02:59.065Z,88.79
2023-04-02T00:04:00.547Z,90.48
2023-04-02T00:05:16.240Z,89.87
2023-04-02T00:06:34.138Z,90.19
2023-04-02T00:07:38.182Z,89.64
2023-04-02T00:08:43.390Z,88.62
2023-04-02T00:09:44.934Z,87.74
2023-04-02T00:10:49.509Z,88.96
2023-04-02T00:11:54.749Z,88.03
2023-04-02T00:13:01.950Z,88.46
2023-04-02T00:14:06.565Z,90.24
2023-04-02T00:15:12.915Z,89.02
2023-04-02T00:16:21.293Z,89.42
2023-04-02T00:17:24.637Z,87.42
2023-04-02T00:18:27.484Z,88.43
2023-04-02T00:19:38.278Z,87.63
2023-04-02T00:20:43.807Z,88.13
2023-04-02T00:21:47.256Z,87.31
2023-04-02T00:22:49.099Z,86.95
2023-04-02T00:23:50.609Z,87.26
2023-04-02T00:24:54.182Z,87.90
2023-04-02T00:25:55.684Z,88.17
2023-04-02T00:26:57.373Z,87.41
2023-04-02T00:27:58.873Z,87.82
2023-04-02T00:29:01.778Z,88.50
2023-04-02T00:30:04.274Z,89.03
2023-04-02T00:31:05.770Z,88.53
2023-04-02T00:32:20.045Z,87.87
2023-04-02T00:33:25.675Z,88.37
2023-04-02T00:34:37.142Z,89.46
2023-04-02T00:35:39.342Z,88.45
2023-04-02T00:36:41.926Z,88.60
2023-04-02T00:37:44.315Z,88.21
2023-04-02T00:38:48.826Z,87.35
2023-04-02T00:40:07.282Z,88.30
2023-04-02T00:41:10.363Z,89.05
2023-04-02T00:42:12.918Z,90.15
2023-04-02T00:43:16.715Z,88.93
2023-04-02T00:44:21.577Z,88.18
2023-04-02T00:45:30.821Z,87.51
2023-04-02T00:46:46.702Z,89.46
2023-04-02T00:47:48.353Z,89.16
2023-04-02T00:49:09.016Z,89.38
2023-04-02T00:50:14.441Z,88.37
2023-04-02T00:51:19.374Z,89.89
2023-04-02T00:52:25.140Z,89.56
2023-04-02T00:53:31.833Z,88.10
2023-04-02T00:54:41.642Z,89.73
2023-04-02T00:55:43.971Z,87.80
2023-04-02T00:56:48.327Z,87.54
2023-04-02T00:57:51.049Z,87.47
2023-04-02T00:58:55.368Z,88.10
2023-04-02T00:59:56.775Z,88.15
2023-04-02T01:00:59.247Z,87.98
2023-04-02T01:02:26.204Z,87.91
2023-04-02T01:03:36.555Z,87.05
2023-04-02T01:04:38.752Z,87.47
2023-04-02T01:05:42.466Z,88.37
2023-04-02T01:06:45.945Z,87.72
2023-04-02T01:07:50.303Z,87.20
2023-04-02T01:09:07.612Z,87.82
2023-04-02T01:10:22.514Z,88.41
2023-04-02T01:12:01.957Z,88.61
2023-04-02T01:13:47.190Z,88.74
2023-04-02T01:15:30.141Z,86.65
2023-04-02T01:16:32.124Z,87.99
2023-04-02T01:17:43.076Z,87.52
2023-04-02T01:19:02.284Z,88.14
2023-04-02T01:20:34.594Z,89.30
2023-04-02T01:22:06.944Z,88.88
2023-04-02T01:23:35.476Z,87.46
2023-04-02T01:24:39.777Z,87.84
2023-04-02T01:25:51.061Z,87.18
2023-04-02T01:27:21.399Z,86.70
2023-04-02T01:28:33.655Z,86.91
2023-04-02T01:29:48.629Z,85.26
2023-04-02T01:30:55.864Z,86.47
2023-04-02T01:32:02.767Z,87.27
2023-04-02T01:33:05.653Z,86.60
2023-04-02T01:34:09.721Z,87.87
2023-04-02T01:35:12.067Z,87.63
2023-04-02T01:36:27.881Z,88.18
2023-04-02T01:37:36.689Z,86.93
2023-04-02T01:38:58.031Z,86.52
2023-04-02T01:40:14.697Z,87.35
2023-04-02T01:41:47.503Z,84.71
2023-04-02T01:43:26.642Z,85.44
2023-04-02T01:44:38.942Z,86.35
2023-04-02T01:45:40.540Z,86.82
2023-04-02T01:46:44.737Z,87.03
2023-04-02T01:47:46.712Z,87.28
2023-04-02T01:48:48.182Z,85.15
2023-04-02T01:49:49.649Z,86.75
2023-04-02T01:50:55.187Z,86.93
2023-04-02T01:51:56.986Z,87.09
2023-04-02T01:53:02.299Z,86.03
2023-04-02T01:54:06.008Z,88.02
2023-04-02T01:55:12.149Z,87.14
2023-04-02T01:56:13.771Z,86.90
2023-04-02T01:57:16.515Z,85.77
2023-04-02T01:58:25.042Z,86.38
2023-04-02T01:59:26.722Z,86.64
2023-04-02T02:00:30.651Z,88.11
2023-04-02T02:01:40.940Z,86.04
2023-04-02T02:02:44.572Z,85.08
2023-04-02T02:03:46.306Z,86.41
2023-04-02T02:04:48.569Z,84.87
2023-04-02T02:05:51.133Z,85.41
2023-04-02T02:06:52.625Z,85.66
2023-04-02T02:07:57.129Z,86.09
2023-04-02T02:09:03.759Z,85.34
2023-04-02T02:10:05.648Z,84.74
2023-04-02T02:11:11.731Z,83.70
2023-04-02T02:12:14.889Z,84.41
2023-04-02T02:13:16.711Z,84.11
2023-04-02T02:14:21.982Z,85.75
2023-04-02T02:15:24.212Z,85.43
2023-04-02T02:16:27.684Z,84.61
2023-04-02T02:17:34.426Z,85.90
2023-04-02T02:18:36.408Z,85.94
2023-04-02T02:19:52.870Z,84.77
2023-04-02T02:20:57.133Z,85.74
2023-04-02T02:22:37.079Z,83.71
2023-04-02T02:23:38.696Z,84.36
2023-04-02T02:24:41.130Z,84.90
2023-04-02T02:25:43.369Z,84.21
2023-04-02T02:26:48.219Z,83.56
2023-04-02T02:28:28.776Z,83.39
2023-04-02T02:29:35.031Z,85.15
2023-04-02T02:30:45.825Z,84.84
2023-04-02T02:31:52.460Z,85.51
2023-04-02T02:33:05.129Z,85.72
2023-04-02T02:34:14.560Z,85.90
2023-04-02T02:35:22.004Z,85.75
2023-04-02T02:36:29.332Z,84.84
2023-04-02T02:37:37.160Z,83.96
2023-04-02T02:39:16.404Z,84.70
2023-04-02T02:40:24.114Z,86.52
2023-04-02T02:41:37.823Z,83.78
2023-04-02T02:42:42.779Z,83.75
2023-04-02T02:43:57.273Z,82.84
2023-04-02T02:45:01.860Z,84.40
2023-04-02T02:46:05.707Z,83.96
2023-04-02T02:47:15.506Z,84.06
2023-04-02T02:48:21.401Z,84.85
2023-04-02T02:49:35.348Z,85.06
2023-04-02T02:50:37.341Z,82.86
2023-04-02T02:51:53.979Z,81.89
2023-04-02T02:52:58.898Z,84.21
2023-04-02T02:54:04.107Z,82.96
2023-04-02T02:55:18.726Z,84.43
2023-04-02T02:56:23.162Z,84.34
2023-04-02T02:57:33.157Z,83.78
2023-04-02T02:58:34.764Z,84.38
2023-04-02T02:59:37.823Z,83.96
2023-04-02T03:00:40.610Z,82.14
2023-04-02T03:01:44.154Z,83.33
2023-04-02T03:02:47.161Z,83.61
2023-04-02T03:03:52.932Z,84.88
2023-04-02T03:04:55.571Z,85.04
2023-04-02T03:06:03.016Z,85.22
2023-04-02T03:07:08.887Z,82.88
2023-04-02T03:08:28.322Z,84.87
2023-04-02T03:09:45.568Z,82.82
2023-04-02T03:11:05.022Z,84.26
2023-04-02T03:12:12.494Z,84.08
2023-04-02T03:13:35.386Z,86.12
2023-04-02T03:14:44.884Z,84.08
2023-04-02T03:16:28.334Z,83.82
2023-04-02T03:17:40.804Z,82.87
2023-04-02T03:19:05.816Z,85.00
2023-04-02T03:20:17.576Z,83.47
2023-04-02T03:21:27.927Z,83.60
2023-04-02T03:22:37.259Z,84.46
2023-04-02T03:24:15.906Z,84.35
2023-04-02T03:25:37.656Z,83.24
2023-04-02T03:26:59.260Z,83.49
2023-04-02T03:28:07.872Z,82.66
2023-04-02T03:29:18.301Z,82.79
2023-04-02T03:30:30.999Z,82.81
2023-04-02T03:31:36.526Z,83.11
2023-04-02T03:32:42.217Z,83.20
2023-04-02T03:34:01.312Z,81.86
2023-04-02T03:35:28.978Z,82.55
2023-04-02T03:36:38.395Z,84.79
2023-04-02T03:37:46.113Z,83.52
2023-04-02T03:38:54.339Z,84.83
2023-04-02T03:40:02.332Z,83.04
2023-04-02T03:41:17.120Z,85.37
2023-04-02T03:42:30.150Z,85.53
2023-04-02T03:43:39.609Z,83.60
2023-04-02T03:45:17.947Z,83.85
2023-04-02T03:46:41.953Z,85.28
2023-04-02T03:47:51.055Z,86.13
2023-04-02T03:48:58.980Z,84.17
2023-04-02T03:50:06.336Z,85.12
2023-04-02T03:51:34.227Z,84.92
2023-04-02T03:52:37.779Z,83.13
2023-04-02T03:53:39.345Z,82.90
2023-04-02T03:54:53.119Z,83.03
2023-04-02T03:55:57.116Z,83.31
2023-04-02T03:56:59.371Z,83.81
2023-04-02T03:58:14.660Z,82.24
2023-04-02T03:59:34.761Z,82.31
2023-04-02T04:00:51.212Z,80.71
2023-04-02T04:01:59.740Z,81.46
2023-04-02T04:03:14.440Z,82.32
2023-04-02T04:04:20.792Z,83.43
2023-04-02T04:05:31.975Z,82.47
2023-04-02T04:06:35.746Z,82.33
2023-04-02T04:07:41.590Z,84.39
2023-04-02T04:08:54.699Z,82.95
2023-04-02T04:09:58.126Z,81.69
2023-04-02T04:11:07.481Z,83.26
2023-04-02T04:12:35.193Z,83.16
2023-04-02T04:14:14.488Z,82.40
2023-04-02T04:15:36.024Z,83.30
2023-04-02T04:17:01.883Z,83.84
2023-04-02T04:18:10.454Z,82.91
2023-04-02T04:19:37.915Z,83.69
2023-04-02T04:20:50.399Z,81.69
2023-04-02T04:21:57.012Z,81.87
2023-04-02T04:23:17.348Z,81.51
2023-04-02T04:24:22.716Z,82.90
2023-04-02T04:25:30.306Z,81.58
2023-04-02T04:27:09.419Z,82.42
2023-04-02T04:28:44.437Z,82.93
2023-04-02T04:30:06.012Z,81.98
2023-04-02T04:31:25.331Z,83.21
2023-04-02T04:32:36.295Z,83.69
2023-04-02T04:33:46.130Z,81.41
2023-04-02T04:34:53.576Z,80.66
2023-04-02T04:35:59.064Z,83.80
2023-04-02T04:37:07.523Z,81.83
2023-04-02T04:38:44.161Z,84.15
2023-04-02T04:39:53.044Z,83.73
2023-04-02T04:41:01.835Z,83.08
2023-04-02T04:42:06.451Z,82.96
2023-04-02T04:43:18.884Z,82.97
2023-04-02T04:44:37.662Z,81.83
2023-04-02T04:45:51.714Z,84.26
2023-04-02T04:46:59.457Z,83.93
2023-04-02T04:48:06.943Z,82.84
2023-04-02T04:49:14.546Z,82.92
2023-04-02T04:50:24.167Z,83.86
2023-04-02T04:51:42.356Z,82.35
2023-04-02T04:52:44.476Z,81.87
2023-04-02T04:53:47.440Z,83.68
2023-04-02T04:54:48.982Z,82.94
2023-04-02T04:55:53.975Z,83.18
2023-04-02T04:57:00.001Z,81.85
2023-04-02T04:58:23.081Z,82.00
2023-04-02T04:59:33.833Z,82.05
2023-04-02T05:01:13.439Z,82.37
2023-04-02T05:02:22.802Z,83.53
2023-04-02T05:03:33.161Z,83.66
2023-04-02T05:04:36.233Z,83.83
2023-04-02T05:05:40.873Z,82.87
2023-04-02T05:06:54.389Z,83.10
2023-04-02T05:08:00.243Z,82.40
2023-04-02T05:09:11.140Z,82.49
2023-04-02T05:10:26.446Z,82.18
2023-04-02T05:11:37.963Z,84.11
2023-04-02T05:12:49.358Z,81.97
2023-04-02T05:14:02.132Z,83.09
2023-04-02T05:15:17.378Z,82.08
2023-04-02T05:16:38.240Z,81.82
2023-04-02T05:17:52.807Z,83.11
2023-04-02T05:19:07.474Z,84.42
2023-04-02T05:20:18.090Z,83.63
2023-04-02T05:21:42.853Z,83.58
2023-04-02T05:22:50.889Z,82.90
2023-04-02T05:24:18.782Z,83.82
2023-04-02T05:25:27.901Z,84.76
2023-04-02T05:26:45.741Z,81.18
2023-04-02T05:28:01.015Z,83.42
2023-04-02T05:29:25.240Z,84.10
2023-04-02T05:30:26.581Z,83.42
2023-04-02T05:31:38.339Z,81.72
2023-04-02T05:32:45.988Z,82.26
2023-04-02T05:33:48.849Z,82.36
2023-04-02T05:34:54.734Z,80.55
2023-04-02T05:36:09.355Z,80.95
2023-04-02T05:37:19.502Z,82.10
2023-04-02T05:38:25.348Z,81.41
2023-04-02T05:39:27.368Z,80.76
2023-04-02T05:40:38.275Z,82.59
2023-04-02T05:41:43.778Z,83.18
2023-04-02T05:42:49.311Z,82.20
2023-04-02T05:43:58.779Z,83.14
2023-04-02T05:45:08.678Z,81.15
2023-04-02T05:46:17.483Z,81.58
2023-04-02T05:47:27.787Z,80.67
2023-04-02T05:48:32.847Z,78.70
2023-04-02T05:49:46.395Z,79.94
2023-04-02T05:50:52.683Z,79.12
2023-04-02T05:51:58.753Z,78.80
2023-04-02T05:53:08.698Z,77.63
2023-04-02T05:54:24.687Z,79.17
2023-04-02T05:55:32.231Z,80.20
2023-04-02T05:56:46.968Z,81.27
2023-04-02T05:58:13.517Z,81.24
2023-04-02T05:59:27.199Z,79.61
2023-04-02T06:01:01.460Z,79.84
2023-04-02T06:02:12.956Z,81.26
2023-04-02T06:03:40.123Z,79.28
2023-04-02T06:04:50.592Z,79.34
2023-04-02T06:05:54.157Z,78.88
2023-04-02T06:07:05.960Z,78.74
2023-04-02T06:08:23.849Z,78.60
2023-04-02T06:09:35.968Z,78.17
2023-04-02T06:10:47.693Z,79.74
2023-04-02T06:11:56.764Z,78.87
2023-04-02T06:13:05.819Z,77.29
2023-04-02T06:14:11.878Z,76.41
2023-04-02T06:15:15.478Z,77.22
2023-04-02T06:16:17.301Z,78.02
2023-04-02T06:17:21.053Z,74.81
2023-04-02T06:18:31.308Z,76.75
2023-04-02T06:19:37.253Z,75.76
2023-04-02T06:20:38.845Z,75.71
2023-04-02T06:21:45.615Z,76.58
2023-04-02T06:22:55.592Z,75.84
2023-04-02T06:24:02.520Z,76.27
2023-04-02T06:25:18.029Z,75.19
2023-04-02T06:26:28.098Z,74.56
2023-04-02T06:27:30.648Z,76.04
2023-04-02T06:28:45.202Z,75.36
2023-04-02T06:29:52.759Z,75.69
2023-04-02T06:31:00.717Z,75.01
2023-04-02T06:32:04.069Z,74.72
2023-04-02T06:33:05.609Z,74.37
2023-04-02T06:34:15.702Z,76.52
2023-04-02T06:35:17.378Z,74.47
2023-04-02T06:36:20.461Z,74.77
2023-04-02T06:37:21.928Z,74.46
2023-04-02T06:38:29.409Z,75.60
2023-04-02T06:39:30.935Z,73.28
2023-04-02T06:40:33.424Z,73.93
2023-04-02T06:41:34.867Z,73.66
2023-04-02T06:42:40.101Z,74.04
2023-04-02T06:43:47.817Z,74.01
2023-04-02T06:44:49.885Z,74.72
2023-04-02T06:45:52.365Z,74.13
2023-04-02T06:46:59.343Z,71.69
2023-04-02T06:48:02.703Z,73.81
2023-04-02T06:49:16.451Z,73.82
2023-04-02T06:50:31.370Z,74.97
2023-04-02T06:51:35.689Z,73.22
2023-04-02T06:52:51.203Z,72.61
2023-04-02T06:53:53.353Z,72.19
2023-04-02T06:54:54.857Z,72.51
2023-04-02T06:56:08.447Z,73.07
2023-04-02T06:57:12.400Z,72.28
2023-04-02T06:58:16.383Z,74.54
2023-04-02T06:59:19.064Z,72.17
2023-04-02T07:00:48.201Z,72.68
2023-04-02T07:01:52.463Z,72.73
2023-04-02T07:02:56.104Z,72.45
2023-04-02T07:03:58.029Z,73.55
2023-04-02T07:05:04.587Z,70.78
2023-04-02T07:06:06.893Z,74.40
2023-04-02T07:07:08.296Z,73.21
2023-04-02T07:08:09.824Z,73.18
2023-04-02T07:09:11.442Z,73.40
2023-04-02T07:10:12.997Z,71.84
2023-04-02T07:11:18.239Z,72.05
2023-04-02T07:12:25.618Z,72.76
2023-04-02T07:13:27.032Z,71.83
2023-04-02T07:14:28.471Z,73.58
2023-04-02T07:15:30.089Z,72.55
2023-04-02T07:16:33.678Z,73.12
2023-04-02T07:17:35.172Z,73.57
2023-04-02T07:18:36.852Z,73.83
2023-04-02T07:19:38.265Z,73.39
2023-04-02T07:20:41.605Z,73.41
2023-04-02T07:21:42.982Z,74.48
2023-04-02T07:22:44.844Z,72.68
2023-04-02T07:23:46.322Z,73.81
2023-04-02T07:24:47.856Z,71.35
2023-04-02T07:25:50.804Z,70.40
2023-04-02T07:26:52.219Z,71.46
2023-04-02T07:27:54.052Z,71.68
2023-04-02T07:28:56.115Z,69.67
2023-04-02T07:29:57.476Z,72.01
2023-04-02T07:30:58.966Z,70.96
2023-04-02T07:32:00.513Z,72.21
2023-04-02T07:33:02.123Z,73.26
2023-04-02T07:34:05.394Z,71.69
2023-04-02T07:35:07.749Z,69.82
2023-04-02T07:36:14.162Z,70.64
2023-04-02T07:37:15.663Z,67.92
2023-04-02T07:38:17.194Z,67.14
2023-04-02T07:39:18.677Z,68.40
2023-04-02T07:40:22.841Z,67.79
2023-04-02T07:41:24.920Z,67.48
2023-04-02T07:42:26.261Z,68.54
2023-04-02T07:43:27.699Z,67.80
2023-04-02T07:44:29.357Z,66.89
2023-04-02T07:45:31.412Z,67.95
2023-04-02T07:46:32.795Z,66.59
2023-04-02T07:47:34.241Z,68.18
2023-04-02T07:48:36.409Z,67.89
2023-04-02T07:49:37.806Z,66.50
2023-04-02T07:50:39.354Z,67.32
2023-04-02T07:51:41.102Z,68.70
2023-04-02T07:52:43.799Z,68.65
2023-04-02T07:53:45.463Z,69.74
2023-04-02T07:54:47.288Z,66.18
2023-04-02T07:55:52.888Z,67.33
2023-04-02T07:56:54.439Z,69.83
2023-04-02T07:57:58.183Z,68.22
2023-04-02T07:58:59.617Z,69.46
2023-04-02T08:00:01.057Z,66.16
2023-04-02T08:01:03.749Z,68.21
2023-04-02T08:02:05.823Z,64.00
2023-04-02T08:03:07.515Z,64.40
2023-04-02T08:04:17.388Z,63.56
2023-04-02T08:05:19.121Z,64.48
2023-04-02T08:06:21.235Z,59.62
2023-04-02T08:07:22.569Z,62.80
2023-04-02T08:08:25.250Z,59.75
2023-04-02T08:09:27.013Z,60.23
2023-04-02T08:10:28.449Z,60.96
2023-04-02T08:11:31.681Z,62.51
2023-04-02T08:12:33.571Z,63.88
2023-04-02T08:13:35.348Z,62.80
2023-04-02T08:14:36.776Z,62.84
2023-04-02T08:15:38.603Z,62.60
2023-04-02T08:16:47.427Z,62.35
2023-04-02T08:17:48.973Z,63.38
2023-04-02T08:18:50.760Z,62.35
2023-04-02T08:19:55.200Z,64.51
2023-04-02T08:20:57.915Z,63.85
2023-04-02T08:21:59.467Z,63.01
2023-04-02T08:23:01.088Z,63.54
2023-04-02T08:24:03.706Z,64.46
2023-04-02T08:25:05.652Z,66.28
2023-04-02T08:26:07.445Z,64.32
2023-04-02T08:27:14.829Z,65.46
2023-04-02T08:28:16.638Z,65.38
2023-04-02T08:29:18.308Z,65.15
2023-04-02T08:30:20.293Z,66.32
2023-04-02T08:31:21.784Z,64.83
2023-04-02T08:32:24.123Z,63.39
2023-04-02T08:33:26.174Z,64.14
2023-04-02T08:34:28.213Z,64.89
2023-04-02T08:35:30.385Z,63.32
2023-04-02T08:36:38.072Z,64.29
2023-04-02T08:37:39.570Z,63.94
2023-04-02T08:38:40.970Z,62.42
2023-04-02T08:39:42.363Z,62.64
2023-04-02T08:40:47.475Z,63.24
2023-04-02T08:42:08.085Z,62.21
2023-04-02T08:43:25.389Z,62.82
2023-04-02T08:44:52.411Z,62.37
2023-04-02T08:46:29.260Z,62.92
2023-04-02T08:47:32.571Z,62.99
2023-04-02T08:48:36.822Z,64.87
2023-04-02T08:49:44.507Z,63.59
2023-04-02T08:50:46.106Z,64.70
2023-04-02T08:51:47.729Z,62.84
2023-04-02T08:52:49.382Z,61.89
2023-04-02T08:53:53.909Z,64.26
2023-04-02T08:54:57.874Z,64.88
2023-04-02T08:56:19.634Z,62.30
2023-04-02T08:57:47.207Z,63.16
2023-04-02T08:58:53.622Z,63.06
2023-04-02T09:00:15.763Z,61.98
2023-04-02T09:01:21.497Z,59.09
2023-04-02T09:02:28.166Z,59.98
2023-04-02T09:03:39.826Z,60.87
2023-04-02T09:04:41.681Z,63.85
2023-04-02T09:05:45.324Z,63.35
2023-04-02T09:06:48.222Z,65.70
2023-04-02T09:07:50.874Z,62.36
2023-04-02T09:08:54.172Z,62.75
2023-04-02T09:09:56.379Z,61.64
2023-04-02T09:11:12.466Z,64.45
2023-04-02T09:12:25.671Z,62.49
2023-04-02T09:13:30.099Z,62.00
2023-04-02T09:14:45.717Z,61.80
2023-04-02T09:15:47.737Z,62.79
2023-04-02T09:16:53.805Z,63.07
2023-04-02T09:18:11.959Z,62.09
2023-04-02T09:19:29.642Z,62.73
2023-04-02T09:20:31.091Z,64.63
2023-04-02T09:21:46.953Z,64.67
2023-04-02T09:22:51.273Z,62.18
2023-04-02T09:23:52.655Z,65.37
2023-04-02T09:24:57.209Z,62.75
2023-04-02T09:26:04.677Z,62.74
2023-04-02T09:27:18.347Z,62.68
2023-04-02T09:28:21.395Z,63.76
2023-04-02T09:29:40.747Z,64.60
2023-04-02T09:31:05.499Z,62.38
2023-04-02T09:32:19.841Z,61.50
2023-04-02T09:33:40.864Z,62.46
2023-04-02T09:34:42.278Z,61.79
2023-04-02T09:35:49.824Z,61.85
2023-04-02T09:36:52.033Z,62.53
2023-04-02T09:38:28.061Z,61.18
2023-04-02T09:39:29.476Z,62.17
2023-04-02T09:40:39.443Z,62.61
2023-04-02T09:41:40.982Z,60.20
2023-04-02T09:42:42.434Z,64.55
2023-04-02T09:43:43.981Z,65.04
2023-04-02T09:44:45.747Z,64.89
2023-04-02T09:45:58.020Z,65.99
2023-04-02T09:47:04.683Z,64.41
2023-04-02T09:48:22.859Z,59.43
2023-04-02T09:49:32.981Z,59.59
2023-04-02T09:50:34.816Z,55.69
2023-04-02T09:51:36.561Z,55.31
2023-04-02T09:52:38.107Z,55.33
2023-04-02T09:53:42.588Z,54.83
2023-04-02T09:54:44.533Z,55.90
2023-04-02T09:55:46.184Z,56.29
2023-04-02T09:57:04.589Z,57.12
2023-04-02T09:58:08.248Z,60.57
2023-04-02T09:59:12.385Z,60.23
2023-04-02T10:01:31.142Z,60.80
2023-04-02T10:02:32.715Z,58.83
2023-04-02T10:03:35.145Z,58.49
2023-04-02T10:04:47.827Z,62.17
2023-04-02T10:06:05.308Z,58.95
2023-04-02T10:07:07.117Z,59.83
2023-04-02T10:08:28.036Z,60.05
2023-04-02T10:09:32.385Z,60.30
2023-04-02T10:10:41.906Z,57.99
2023-04-02T10:12:51.754Z,58.82
2023-04-02T10:14:01.050Z,57.98
2023-04-02T10:15:04.471Z,56.72
2023-04-02T10:16:34.060Z,56.18
2023-04-02T10:17:38.001Z,56.44
2023-04-02T10:18:45.552Z,56.79
2023-04-02T10:20:06.142Z,56.52
2023-04-02T10:21:12.034Z,55.62
2023-04-02T10:22:17.101Z,57.60
2023-04-02T10:23:19.771Z,55.58
2023-04-02T10:24:21.207Z,56.13
2023-04-02T10:25:27.719Z,55.35
2023-04-02T10:26:37.960Z,60.50
2023-04-02T10:28:01.778Z,56.99
2023-04-02T10:29:08.236Z,56.06
2023-04-02T10:30:25.037Z,54.49
2023-04-02T10:31:34.084Z,55.92
2023-04-02T10:32:42.477Z,58.01
2023-04-02T10:33:49.859Z,58.66
2023-04-02T10:35:03.601Z,55.43
2023-04-02T10:36:22.331Z,56.54
2023-04-02T10:37:47.000Z,57.61
2023-04-02T10:39:01.690Z,58.09
2023-04-02T10:40:12.059Z,55.46
2023-04-02T10:41:19.282Z,57.58
2023-04-02T10:42:41.971Z,52.86
2023-04-02T10:44:03.566Z,55.97
2023-04-02T10:45:44.878Z,57.37
2023-04-02T10:47:08.033Z,53.56
2023-04-02T10:48:31.650Z,52.88
2023-04-02T10:49:42.996Z,54.78
2023-04-02T10:50:53.563Z,56.84
2023-04-02T10:52:13.728Z,56.94
2023-04-02T10:53:19.303Z,55.53
2023-04-02T10:54:44.946Z,54.63
2023-04-02T10:56:01.307Z,55.08
2023-04-02T10:57:18.811Z,57.58
2023-04-02T10:58:26.417Z,56.35
2023-04-02T10:59:34.455Z,56.79
2023-04-02T11:00:39.877Z,54.58
2023-04-02T11:01:43.500Z,53.99
2023-04-02T11:03:08.061Z,55.44
2023-04-02T11:04:37.546Z,56.46
2023-04-02T11:05:47.670Z,55.29
2023-04-02T11:07:03.491Z,55.44
2023-04-02T11:08:19.140Z,53.34
2023-04-02T11:09:26.562Z,56.05
2023-04-02T11:10:32.641Z,58.21
2023-04-02T11:11:44.385Z,54.84
2023-04-02T11:12:57.772Z,57.33
2023-04-02T11:14:31.681Z,57.96
2023-04-02T11:15:35.950Z,55.09
2023-04-02T11:16:42.538Z,57.61
2023-04-02T11:17:46.072Z,55.57
2023-04-02T11:19:20.399Z,55.12
2023-04-02T11:20:43.924Z,55.68
2023-04-02T11:22:01.365Z,54.65
2023-04-02T11:23:13.338Z,56.15
2023-04-02T11:24:34.287Z,54.96
2023-04-02T11:25:36.118Z,56.92
2023-04-02T11:26:41.841Z,57.06
2023-04-02T11:27:43.349Z,55.29
2023-04-02T11:28:44.956Z,56.16
2023-04-02T11:30:13.900Z,54.13
2023-04-02T11:31:21.954Z,55.35
2023-04-02T11:32:29.717Z,56.95
2023-04-02T11:33:38.429Z,56.25
2023-04-02T11:34:41.410Z,56.22
2023-04-02T11:35:42.951Z,56.31
2023-04-02T11:36:50.110Z,55.63
2023-04-02T11:37:52.190Z,55.22
2023-04-02T11:38:54.966Z,57.95
2023-04-02T11:39:59.546Z,57.57
2023-04-02T11:41:00.985Z,57.30
2023-04-02T11:42:04.429Z,59.48
2023-04-02T11:43:33.737Z,58.08
2023-04-02T11:44:35.337Z,59.06
2023-04-02T11:45:52.852Z,57.22
2023-04-02T11:47:18.823Z,55.58
2023-04-02T11:48:20.568Z,56.55
2023-04-02T11:49:39.597Z,57.98
2023-04-02T11:50:44.446Z,56.74
2023-04-02T11:51:45.857Z,58.21
2023-04-02T11:52:47.290Z,58.91
2023-04-02T11:53:51.551Z,58.61
2023-04-02T11:54:59.573Z,58.03
2023-04-02T11:56:19.411Z,55.03
2023-04-02T11:57:52.105Z,56.62
2023-04-02T11:59:23.640Z,54.83
2023-04-02T12:00:53.100Z,56.15
2023-04-02T12:02:18.104Z,54.76
2023-04-02T12:03:46.230Z,56.69
2023-04-02T12:05:07.428Z,56.50
2023-04-02T12:06:25.535Z,55.64
2023-04-02T12:07:55.792Z,56.74
2023-04-02T12:09:09.045Z,59.08
2023-04-02T12:10:20.234Z,58.27
2023-04-02T12:11:33.666Z,55.85
2023-04-02T12:12:39.305Z,57.08
2023-04-02T12:13:40.706Z,57.08
2023-04-02T12:14:47.881Z,54.77
2023-04-02T12:15:51.956Z,54.08
2023-04-02T12:16:53.591Z,52.81
2023-04-02T12:18:11.374Z,57.77
2023-04-02T12:19:16.687Z,54.85
2023-04-02T12:20:21.474Z,52.39
2023-04-02T12:21:26.430Z,56.35
2023-04-02T12:22:31.781Z,52.69
2023-04-02T12:23:36.933Z,53.05
2023-04-02T12:24:40.553Z,50.98
2023-04-02T12:25:46.314Z,53.34
2023-04-02T12:26:48.047Z,51.16
2023-04-02T12:28:04.251Z,53.18
2023-04-02T12:29:26.355Z,51.05
2023-04-02T12:30:29.258Z,50.16
2023-04-02T12:31:30.975Z,50.88
2023-04-02T12:32:32.489Z,50.26
2023-04-02T12:33:37.548Z,52.86
2023-04-02T12:34:46.082Z,50.70
2023-04-02T12:35:50.719Z,53.73
2023-04-02T12:37:03.793Z,53.20
2023-04-02T12:38:06.041Z,52.57
2023-04-02T12:39:16.806Z,54.05
2023-04-02T12:40:18.657Z,53.34
2023-04-02T12:41:27.231Z,50.84
2023-04-02T12:42:36.941Z,53.13
2023-04-02T12:43:39.912Z,53.80
2023-04-02T12:44:48.808Z,52.17
2023-04-02T12:45:55.286Z,50.52
2023-04-02T12:46:58.488Z,50.87
2023-04-02T12:48:04.492Z,53.17
2023-04-02T12:49:26.182Z,52.34
2023-04-02T12:50:27.690Z,52.51
2023-04-02T12:51:29.460Z,52.50
2023-04-02T12:52:31.017Z,54.62
2023-04-02T12:53:41.125Z,51.18
2023-04-02T12:54:52.243Z,51.61
2023-04-02T12:55:55.096Z,53.82
2023-04-02T12:57:25.809Z,50.07
2023-04-02T12:58:45.140Z,51.30
2023-04-02T12:59:46.817Z,49.95
2023-04-02T13:00:49.287Z,47.82
2023-04-02T13:02:02.589Z,49.33
2023-04-02T13:03:16.520Z,49.42
2023-04-02T13:04:18.362Z,46.99
2023-04-02T13:05:56.456Z,48.50
2023-04-02T13:06:58.453Z,49.09
2023-04-02T13:08:00.143Z,49.08
2023-04-02T13:09:04.312Z,50.60
2023-04-02T13:10:23.518Z,51.29
2023-04-02T13:11:36.075Z,48.43
2023-04-02T13:12:40.409Z,47.18
2023-04-02T13:13:43.960Z,49.66
2023-04-02T13:14:45.452Z,47.41
2023-04-02T13:16:14.709Z,45.65
2023-04-02T13:17:47.895Z,46.03
2023-04-02T13:18:50.977Z,48.08
2023-04-02T13:19:52.630Z,47.07
2023-04-02T13:20:59.584Z,48.02
2023-04-02T13:22:02.750Z,48.65
2023-04-02T13:23:43.869Z,49.02
2023-04-02T13:24:45.398Z,51.38
2023-04-02T13:25:46.938Z,48.44
2023-04-02T13:26:50.006Z,48.88
2023-04-02T13:27:51.487Z,51.99
2023-04-02T13:29:17.652Z,51.77
2023-04-02T13:30:23.344Z,52.77
2023-04-02T13:31:24.963Z,49.76
2023-04-02T13:32:27.331Z,47.79
2023-04-02T13:33:28.784Z,46.96
2023-04-02T13:34:30.916Z,47.06
2023-04-02T13:35:32.646Z,46.36
2023-04-02T13:36:34.268Z,44.59
2023-04-02T13:37:35.717Z,42.90
2023-04-02T13:38:37.232Z,45.36
2023-04-02T13:39:38.625Z,44.71
2023-04-02T13:40:40.164Z,43.11
2023-04-02T13:41:48.571Z,42.88
2023-04-02T13:42:50.458Z,43.45
2023-04-02T13:43:53.102Z,44.53
2023-04-02T13:44:54.616Z,46.33
2023-04-02T13:45:59.715Z,46.35
2023-04-02T13:47:01.716Z,45.73
2023-04-02T13:48:03.537Z,46.60
2023-04-02T13:49:05.001Z,47.09
2023-04-02T13:50:06.682Z,47.46
2023-04-02T13:51:14.704Z,47.53
2023-04-02T13:52:16.815Z,45.72
2023-04-02T13:53:25.513Z,45.28
2023-04-02T13:54:31.355Z,45.06
2023-04-02T13:55:37.590Z,46.69
2023-04-02T13:56:39.142Z,45.70
2023-04-02T13:57:40.938Z,45.75
2023-04-02T13:58:42.400Z,45.42
2023-04-02T13:59:43.867Z,47.39
2023-04-02T14:00:46.425Z,48.52
2023-04-02T14:01:50.610Z,49.74
2023-04-02T14:03:08.026Z,48.72
2023-04-02T14:04:10.694Z,45.48
2023-04-02T14:05:21.707Z,47.00
2023-04-02T14:06:26.146Z,46.61
2023-04-02T14:07:51.621Z,45.94
2023-04-02T14:08:59.244Z,47.07
2023-04-02T14:10:26.049Z,44.79
2023-04-02T14:11:35.963Z,46.49
2023-04-02T14:12:55.911Z,47.75
2023-04-02T14:14:19.240Z,44.91
2023-04-02T14:15:32.846Z,45.59
2023-04-02T14:16:53.400Z,44.40
2023-04-02T14:18:18.341Z,46.22
2023-04-02T14:19:57.646Z,46.40
2023-04-02T14:21:11.493Z,47.15
2023-04-02T14:22:21.994Z,46.57
2023-04-02T14:23:32.216Z,46.36
2023-04-02T14:25:12.288Z,45.51
2023-04-02T14:26:33.301Z,45.53
2023-04-02T14:27:56.068Z,45.47
2023-04-02T14:29:11.418Z,50.51
2023-04-02T14:30:12.855Z,49.24
2023-04-02T14:31:20.641Z,46.60
2023-04-02T14:32:40.475Z,50.46
2023-04-02T14:33:48.283Z,46.96
2023-04-02T14:35:10.727Z,46.03
2023-04-02T14:36:12.124Z,44.82
2023-04-02T14:37:19.995Z,43.56
2023-04-02T14:38:25.868Z,44.83
2023-04-02T14:39:54.351Z,46.56
2023-04-02T14:41:13.757Z,46.59
2023-04-02T14:42:41.475Z,48.10
2023-04-02T14:43:53.566Z,47.45
2023-04-02T14:45:21.983Z,47.80
2023-04-02T14:46:27.945Z,47.95
2023-04-02T14:47:37.473Z,50.59
2023-04-02T14:49:03.869Z,51.17
2023-04-02T14:50:27.865Z,49.13
2023-04-02T14:51:33.648Z,49.37
2023-04-02T14:52:36.447Z,49.16
2023-04-02T14:53:52.894Z,49.44
2023-04-02T14:55:04.220Z,50.42
2023-04-02T14:56:08.347Z,50.78
2023-04-02T14:57:21.433Z,51.87